Terminal Aerodrome Forecast
Issued by NWS

Home | Current Version | Previous Version | Text Only | Print | Product List | Glossary On
Versions: 1 2 3 4 5 6 7 8 9 10 11 12 13 14 15 16 17 18 19
000
FTUS41 KILN 281900 AAA
TAFLCK
TAF AMD
KLCK 281947Z 2820/2918 33005KT P6SM OVC025
     FM291400 33003KT P6SM OVC030
     FM291700 01004KT P6SM SCT030 BKN200=

USA.gov is the U.S. government's official web portal to all federal, state and local government web resources and services.